sensor_id;sensor_type;location;lat;lon;timestamp;pressure;altitude;pressure_sealevel;temperature
11424;BMP180;5768;51.476;7.210;2024-03-25T00:00:46;99313.00;;;9.40
11424;BMP180;5768;51.476;7.210;2024-03-25T00:05:51;99315.00;;;9.40
11424;BMP180;5768;51.476;7.210;2024-03-25T00:10:53;99315.00;;;9.40
11424;BMP180;5768;51.476;7.210;2024-03-25T00:15:58;99326.00;;;9.40
11424;BMP180;5768;51.476;7.210;2024-03-25T00:21:01;99320.00;;;9.50
11424;BMP180;5768;51.476;7.210;2024-03-25T00:26:04;99321.00;;;9.40
11424;BMP180;5768;51.476;7.210;2024-03-25T00:31:08;99320.00;;;9.30
11424;BMP180;5768;51.476;7.210;2024-03-25T00:36:11;99323.00;;;9.30
11424;BMP180;5768;51.476;7.210;2024-03-25T00:41:13;99317.00;;;9.20
11424;BMP180;5768;51.476;7.210;2024-03-25T00:46:17;99318.00;;;9.20
11424;BMP180;5768;51.476;7.210;2024-03-25T00:51:20;99320.00;;;9.20
11424;BMP180;5768;51.476;7.210;2024-03-25T00:56:23;99314.00;;;9.20
11424;BMP180;5768;51.476;7.210;2024-03-25T01:01:26;99314.00;;;9.20
11424;BMP180;5768;51.476;7.210;2024-03-25T01:06:28;99322.00;;;9.30
11424;BMP180;5768;51.476;7.210;2024-03-25T01:11:31;99314.00;;;9.30
11424;BMP180;5768;51.476;7.210;2024-03-25T01:16:35;99316.00;;;9.30
11424;BMP180;5768;51.476;7.210;2024-03-25T01:21:37;99317.00;;;9.30
11424;BMP180;5768;51.476;7.210;2024-03-25T01:26:40;99323.00;;;9.20
11424;BMP180;5768;51.476;7.210;2024-03-25T01:31:45;99319.00;;;9.20
11424;BMP180;5768;51.476;7.210;2024-03-25T01:36:48;99323.00;;;9.30
11424;BMP180;5768;51.476;7.210;2024-03-25T01:41:51;99318.00;;;9.30
11424;BMP180;5768;51.476;7.210;2024-03-25T01:46:54;99320.00;;;9.30
11424;BMP180;5768;51.476;7.210;2024-03-25T01:51:58;99316.00;;;9.30
11424;BMP180;5768;51.476;7.210;2024-03-25T01:57:01;99322.00;;;9.30
11424;BMP180;5768;51.476;7.210;2024-03-25T02:02:06;99327.00;;;9.30
11424;BMP180;5768;51.476;7.210;2024-03-25T02:07:11;99324.00;;;9.30
11424;BMP180;5768;51.476;7.210;2024-03-25T02:12:15;99329.00;;;9.10
11424;BMP180;5768;51.476;7.210;2024-03-25T02:17:19;99331.00;;;9.10
11424;BMP180;5768;51.476;7.210;2024-03-25T02:22:22;99333.00;;;9.10
11424;BMP180;5768;51.476;7.210;2024-03-25T02:27:26;99348.00;;;9.10
11424;BMP180;5768;51.476;7.210;2024-03-25T02:32:31;99343.00;;;9.20
11424;BMP180;5768;51.476;7.210;2024-03-25T02:37:34;99332.00;;;9.20
11424;BMP180;5768;51.476;7.210;2024-03-25T02:42:39;99331.00;;;8.80
11424;BMP180;5768;51.476;7.210;2024-03-25T02:47:43;99344.00;;;8.60
11424;BMP180;5768;51.476;7.210;2024-03-25T02:52:45;99338.00;;;8.40
11424;BMP180;5768;51.476;7.210;2024-03-25T02:57:49;99340.00;;;8.30
11424;BMP180;5768;51.476;7.210;2024-03-25T03:02:51;99346.00;;;8.10
11424;BMP180;5768;51.476;7.210;2024-03-25T03:07:53;99348.00;;;8.00
11424;BMP180;5768;51.476;7.210;2024-03-25T03:12:57;99351.00;;;8.00
11424;BMP180;5768;51.476;7.210;2024-03-25T03:17:59;99360.00;;;8.10
11424;BMP180;5768;51.476;7.210;2024-03-25T03:23:01;99357.00;;;8.10
11424;BMP180;5768;51.476;7.210;2024-03-25T03:28:07;99349.00;;;8.20
11424;BMP180;5768;51.476;7.210;2024-03-25T03:33:09;99348.00;;;8.20
11424;BMP180;5768;51.476;7.210;2024-03-25T03:38:12;99330.00;;;8.10
11424;BMP180;5768;51.476;7.210;2024-03-25T03:43:16;99329.00;;;7.90
11424;BMP180;5768;51.476;7.210;2024-03-25T03:48:18;99337.00;;;7.90
11424;BMP180;5768;51.476;7.210;2024-03-25T03:53:21;99342.00;;;8.00
11424;BMP180;5768;51.476;7.210;2024-03-25T03:58:25;99339.00;;;8.10
11424;BMP180;5768;51.476;7.210;2024-03-25T04:03:27;99337.00;;;8.10
11424;BMP180;5768;51.476;7.210;2024-03-25T04:08:31;99338.00;;;7.90
11424;BMP180;5768;51.476;7.210;2024-03-25T04:13:35;99334.00;;;7.80
11424;BMP180;5768;51.476;7.210;2024-03-25T04:18:38;99331.00;;;7.70
11424;BMP180;5768;51.476;7.210;2024-03-25T04:23:43;99339.00;;;7.60
11424;BMP180;5768;51.476;7.210;2024-03-25T04:28:47;99326.00;;;7.50
11424;BMP180;5768;51.476;7.210;2024-03-25T04:33:49;99329.00;;;7.40
11424;BMP180;5768;51.476;7.210;2024-03-25T04:38:51;99344.00;;;7.30
11424;BMP180;5768;51.476;7.210;2024-03-25T04:43:54;99343.00;;;7.20
11424;BMP180;5768;51.476;7.210;2024-03-25T04:48:56;99334.00;;;7.20
11424;BMP180;5768;51.476;7.210;2024-03-25T04:53:57;99342.00;;;7.20
11424;BMP180;5768;51.476;7.210;2024-03-25T04:59:00;99335.00;;;7.10
11424;BMP180;5768;51.476;7.210;2024-03-25T05:04:01;99352.00;;;7.20
11424;BMP180;5768;51.476;7.210;2024-03-25T05:09:02;99348.00;;;7.20
11424;BMP180;5768;51.476;7.210;2024-03-25T05:14:05;99367.00;;;7.20
11424;BMP180;5768;51.476;7.210;2024-03-25T05:19:06;99364.00;;;7.10
11424;BMP180;5768;51.476;7.210;2024-03-25T05:24:07;99365.00;;;7.10
11424;BMP180;5768;51.476;7.210;2024-03-25T05:29:10;99356.00;;;7.00
11424;BMP180;5768;51.476;7.210;2024-03-25T05:34:11;99353.00;;;7.00
11424;BMP180;5768;51.476;7.210;2024-03-25T05:39:13;99358.00;;;7.00
11424;BMP180;5768;51.476;7.210;2024-03-25T05:44:15;99364.00;;;7.00
11424;BMP180;5768;51.476;7.210;2024-03-25T05:49:17;99374.00;;;7.00
11424;BMP180;5768;51.476;7.210;2024-03-25T05:54:18;99372.00;;;7.10
11424;BMP180;5768;51.476;7.210;2024-03-25T05:59:21;99380.00;;;7.20
11424;BMP180;5768;51.476;7.210;2024-03-25T06:04:23;99373.00;;;7.20
11424;BMP180;5768;51.476;7.210;2024-03-25T06:09:24;99372.00;;;7.30
11424;BMP180;5768;51.476;7.210;2024-03-25T06:14:27;99372.00;;;7.60
11424;BMP180;5768;51.476;7.210;2024-03-25T06:19:28;99374.00;;;7.90
11424;BMP180;5768;51.476;7.210;2024-03-25T06:24:30;99384.00;;;8.20
11424;BMP180;5768;51.476;7.210;2024-03-25T06:29:33;99379.00;;;8.40
11424;BMP180;5768;51.476;7.210;2024-03-25T06:34:36;99386.00;;;8.60
11424;BMP180;5768;51.476;7.210;2024-03-25T06:39:39;99384.00;;;8.70
11424;BMP180;5768;51.476;7.210;2024-03-25T06:44:42;99382.00;;;8.80
11424;BMP180;5768;51.476;7.210;2024-03-25T06:49:43;99377.00;;;8.80
11424;BMP180;5768;51.476;7.210;2024-03-25T06:54:45;99379.00;;;8.80
11424;BMP180;5768;51.476;7.210;2024-03-25T06:59:47;99389.00;;;8.80
11424;BMP180;5768;51.476;7.210;2024-03-25T07:04:49;99398.00;;;8.90
11424;BMP180;5768;51.476;7.210;2024-03-25T07:09:50;99388.00;;;9.00
11424;BMP180;5768;51.476;7.210;2024-03-25T07:14:54;99393.00;;;9.00
11424;BMP180;5768;51.476;7.210;2024-03-25T07:19:55;99391.00;;;9.20
11424;BMP180;5768;51.476;7.210;2024-03-25T07:24:59;99400.00;;;9.20
11424;BMP180;5768;51.476;7.210;2024-03-25T07:30:02;99398.00;;;9.30
11424;BMP180;5768;51.476;7.210;2024-03-25T07:35:05;99394.00;;;9.30
11424;BMP180;5768;51.476;7.210;2024-03-25T07:40:08;99406.00;;;9.30
11424;BMP180;5768;51.476;7.210;2024-03-25T07:45:11;99403.00;;;9.40
11424;BMP180;5768;51.476;7.210;2024-03-25T07:50:13;99396.00;;;9.50
11424;BMP180;5768;51.476;7.210;2024-03-25T07:55:14;99400.00;;;9.80
11424;BMP180;5768;51.476;7.210;2024-03-25T08:00:18;99392.00;;;9.90
11424;BMP180;5768;51.476;7.210;2024-03-25T08:05:22;99400.00;;;10.30
11424;BMP180;5768;51.476;7.210;2024-03-25T08:10:24;99398.00;;;10.60
11424;BMP180;5768;51.476;7.210;2024-03-25T08:15:26;99410.00;;;11.20
11424;BMP180;5768;51.476;7.210;2024-03-25T08:20:30;99403.00;;;11.70
11424;BMP180;5768;51.476;7.210;2024-03-25T08:25:33;99399.00;;;12.20
11424;BMP180;5768;51.476;7.210;2024-03-25T08:30:35;99401.00;;;12.30
11424;BMP180;5768;51.476;7.210;2024-03-25T08:35:50;99393.00;;;12.10
11424;BMP180;5768;51.476;7.210;2024-03-25T08:40:52;99397.00;;;12.20
11424;BMP180;5768;51.476;7.210;2024-03-25T08:46:00;99387.00;;;12.30
11424;BMP180;5768;51.476;7.210;2024-03-25T08:51:09;99393.00;;;12.90
11424;BMP180;5768;51.476;7.210;2024-03-25T08:56:10;99394.00;;;13.40
11424;BMP180;5768;51.476;7.210;2024-03-25T09:01:17;99400.00;;;13.50
11424;BMP180;5768;51.476;7.210;2024-03-25T09:06:19;99398.00;;;13.50
11424;BMP180;5768;51.476;7.210;2024-03-25T09:11:20;99409.00;;;13.40
11424;BMP180;5768;51.476;7.210;2024-03-25T09:16:26;99405.00;;;13.20
11424;BMP180;5768;51.476;7.210;2024-03-25T09:21:28;99399.00;;;13.20
11424;BMP180;5768;51.476;7.210;2024-03-25T09:26:29;99402.00;;;13.00
11424;BMP180;5768;51.476;7.210;2024-03-25T09:31:33;99406.00;;;12.60
11424;BMP180;5768;51.476;7.210;2024-03-25T09:36:36;99393.00;;;12.70
11424;BMP180;5768;51.476;7.210;2024-03-25T09:41:44;99406.00;;;13.00
11424;BMP180;5768;51.476;7.210;2024-03-25T09:46:48;99406.00;;;13.30
11424;BMP180;5768;51.476;7.210;2024-03-25T09:51:50;99397.00;;;13.70
11424;BMP180;5768;51.476;7.210;2024-03-25T09:56:52;99392.00;;;14.10
11424;BMP180;5768;51.476;7.210;2024-03-25T10:02:03;99400.00;;;14.60
11424;BMP180;5768;51.476;7.210;2024-03-25T10:07:05;99390.00;;;14.70
11424;BMP180;5768;51.476;7.210;2024-03-25T10:12:09;99393.00;;;14.70
11424;BMP180;5768;51.476;7.210;2024-03-25T10:17:13;99380.00;;;14.60
11424;BMP180;5768;51.476;7.210;2024-03-25T10:22:15;99386.00;;;14.00
11424;BMP180;5768;51.476;7.210;2024-03-25T10:27:21;99379.00;;;13.90
11424;BMP180;5768;51.476;7.210;2024-03-25T10:32:30;99348.00;;;14.50
11424;BMP180;5768;51.476;7.210;2024-03-25T10:37:33;99370.00;;;14.80
11424;BMP180;5768;51.476;7.210;2024-03-25T10:42:39;99363.00;;;14.90
11424;BMP180;5768;51.476;7.210;2024-03-25T10:47:49;99361.00;;;14.90
11424;BMP180;5768;51.476;7.210;2024-03-25T10:52:53;99352.00;;;15.00
11424;BMP180;5768;51.476;7.210;2024-03-25T10:57:56;99336.00;;;15.30
11424;BMP180;5768;51.476;7.210;2024-03-25T11:03:09;99336.00;;;15.30
11424;BMP180;5768;51.476;7.210;2024-03-25T11:08:33;99312.00;;;15.20
11424;BMP180;5768;51.476;7.210;2024-03-25T11:13:47;99318.00;;;15.50
11424;BMP180;5768;51.476;7.210;2024-03-25T11:18:53;99312.00;;;15.40
11424;BMP180;5768;51.476;7.210;2024-03-25T11:23:55;99318.00;;;15.80
11424;BMP180;5768;51.476;7.210;2024-03-25T11:29:07;99325.00;;;15.70
11424;BMP180;5768;51.476;7.210;2024-03-25T11:34:10;99300.00;;;16.00
11424;BMP180;5768;51.476;7.210;2024-03-25T11:39:19;99296.00;;;16.20
11424;BMP180;5768;51.476;7.210;2024-03-25T11:44:21;99291.00;;;16.40
11424;BMP180;5768;51.476;7.210;2024-03-25T11:49:27;99273.00;;;17.00
11424;BMP180;5768;51.476;7.210;2024-03-25T11:54:29;99270.00;;;17.50
11424;BMP180;5768;51.476;7.210;2024-03-25T11:59:34;99284.00;;;17.50
11424;BMP180;5768;51.476;7.210;2024-03-25T12:04:42;99259.00;;;17.90
11424;BMP180;5768;51.476;7.210;2024-03-25T12:09:47;99257.00;;;18.30
11424;BMP180;5768;51.476;7.210;2024-03-25T12:15:08;99261.00;;;18.60
11424;BMP180;5768;51.476;7.210;2024-03-25T12:20:11;99259.00;;;18.70
11424;BMP180;5768;51.476;7.210;2024-03-25T12:25:12;99252.00;;;18.30
11424;BMP180;5768;51.476;7.210;2024-03-25T12:30:14;99231.00;;;18.40
11424;BMP180;5768;51.476;7.210;2024-03-25T12:35:18;99227.00;;;18.60
11424;BMP180;5768;51.476;7.210;2024-03-25T12:40:30;99222.00;;;19.20
11424;BMP180;5768;51.476;7.210;2024-03-25T12:45:37;99217.00;;;19.80
11424;BMP180;5768;51.476;7.210;2024-03-25T12:50:40;99203.00;;;19.40
11424;BMP180;5768;51.476;7.210;2024-03-25T12:55:44;99202.00;;;20.50
11424;BMP180;5768;51.476;7.210;2024-03-25T13:00:45;99205.00;;;20.00
11424;BMP180;5768;51.476;7.210;2024-03-25T13:05:48;99202.00;;;20.60
11424;BMP180;5768;51.476;7.210;2024-03-25T13:10:49;99200.00;;;22.80
11424;BMP180;5768;51.476;7.210;2024-03-25T13:15:50;99197.00;;;24.40
11424;BMP180;5768;51.476;7.210;2024-03-25T13:20:59;99189.00;;;25.80
11424;BMP180;5768;51.476;7.210;2024-03-25T13:26:01;99189.00;;;27.10
11424;BMP180;5768;51.476;7.210;2024-03-25T13:31:03;99182.00;;;26.90
11424;BMP180;5768;51.476;7.210;2024-03-25T13:36:09;99169.00;;;24.10
11424;BMP180;5768;51.476;7.210;2024-03-25T13:41:13;99153.00;;;22.80
11424;BMP180;5768;51.476;7.210;2024-03-25T13:46:14;99145.00;;;22.80
11424;BMP180;5768;51.476;7.210;2024-03-25T13:51:17;99144.00;;;22.90
11424;BMP180;5768;51.476;7.210;2024-03-25T13:56:19;99131.00;;;21.90
11424;BMP180;5768;51.476;7.210;2024-03-25T14:01:21;99118.00;;;22.40
11424;BMP180;5768;51.476;7.210;2024-03-25T14:06:24;99116.00;;;22.00
11424;BMP180;5768;51.476;7.210;2024-03-25T14:11:25;99122.00;;;24.20
11424;BMP180;5768;51.476;7.210;2024-03-25T14:16:29;99126.00;;;28.10
11424;BMP180;5768;51.476;7.210;2024-03-25T14:21:32;99119.00;;;31.40
11424;BMP180;5768;51.476;7.210;2024-03-25T14:26:34;99114.00;;;32.70
11424;BMP180;5768;51.476;7.210;2024-03-25T14:31:35;99108.00;;;33.70
11424;BMP180;5768;51.476;7.210;2024-03-25T14:36:38;99094.00;;;34.60
11424;BMP180;5768;51.476;7.210;2024-03-25T14:41:43;99083.00;;;35.10
11424;BMP180;5768;51.476;7.210;2024-03-25T14:46:50;99078.00;;;34.90
11424;BMP180;5768;51.476;7.210;2024-03-25T14:51:55;99081.00;;;34.10
11424;BMP180;5768;51.476;7.210;2024-03-25T14:56:57;99067.00;;;34.90
11424;BMP180;5768;51.476;7.210;2024-03-25T15:02:01;99058.00;;;33.80
11424;BMP180;5768;51.476;7.210;2024-03-25T15:07:07;99049.00;;;35.70
11424;BMP180;5768;51.476;7.210;2024-03-25T15:12:19;99048.00;;;36.90
11424;BMP180;5768;51.476;7.210;2024-03-25T15:17:20;99040.00;;;36.70
11424;BMP180;5768;51.476;7.210;2024-03-25T15:22:23;99041.00;;;37.60
11424;BMP180;5768;51.476;7.210;2024-03-25T15:27:24;99035.00;;;38.60
11424;BMP180;5768;51.476;7.210;2024-03-25T15:32:25;99021.00;;;39.20
11424;BMP180;5768;51.476;7.210;2024-03-25T15:37:44;99014.00;;;39.30
11424;BMP180;5768;51.476;7.210;2024-03-25T15:42:49;99009.00;;;39.60
11424;BMP180;5768;51.476;7.210;2024-03-25T15:47:51;99011.00;;;39.90
11424;BMP180;5768;51.476;7.210;2024-03-25T15:53:14;98993.00;;;40.40
11424;BMP180;5768;51.476;7.210;2024-03-25T15:58:22;99000.00;;;40.10
11424;BMP180;5768;51.476;7.210;2024-03-25T16:03:31;98977.00;;;40.20
11424;BMP180;5768;51.476;7.210;2024-03-25T16:08:44;98968.00;;;40.00
11424;BMP180;5768;51.476;7.210;2024-03-25T16:13:55;98992.00;;;39.80
11424;BMP180;5768;51.476;7.210;2024-03-25T16:19:09;98962.00;;;39.30
11424;BMP180;5768;51.476;7.210;2024-03-25T16:24:15;98978.00;;;39.00
11424;BMP180;5768;51.476;7.210;2024-03-25T16:29:32;98970.00;;;38.80
11424;BMP180;5768;51.476;7.210;2024-03-25T16:34:36;98964.00;;;38.50
11424;BMP180;5768;51.476;7.210;2024-03-25T16:39:48;98960.00;;;38.20
11424;BMP180;5768;51.476;7.210;2024-03-25T16:44:50;98962.00;;;37.50
11424;BMP180;5768;51.476;7.210;2024-03-25T16:50:01;98943.00;;;34.30
11424;BMP180;5768;51.476;7.210;2024-03-25T16:55:06;98930.00;;;30.90
11424;BMP180;5768;51.476;7.210;2024-03-25T17:00:12;98916.00;;;28.20
11424;BMP180;5768;51.476;7.210;2024-03-25T17:05:14;98907.00;;;26.30
11424;BMP180;5768;51.476;7.210;2024-03-25T17:10:33;98917.00;;;24.80
11424;BMP180;5768;51.476;7.210;2024-03-25T17:15:40;98905.00;;;23.60
11424;BMP180;5768;51.476;7.210;2024-03-25T17:20:44;98900.00;;;22.60
11424;BMP180;5768;51.476;7.210;2024-03-25T17:25:46;98897.00;;;21.90
11424;BMP180;5768;51.476;7.210;2024-03-25T17:30:48;98905.00;;;21.10
11424;BMP180;5768;51.476;7.210;2024-03-25T17:35:49;98889.00;;;20.50
11424;BMP180;5768;51.476;7.210;2024-03-25T17:40:52;98889.00;;;19.90
11424;BMP180;5768;51.476;7.210;2024-03-25T17:45:56;98883.00;;;19.30
11424;BMP180;5768;51.476;7.210;2024-03-25T17:50:59;98883.00;;;18.80
11424;BMP180;5768;51.476;7.210;2024-03-25T17:56:05;98900.00;;;18.40
11424;BMP180;5768;51.476;7.210;2024-03-25T18:01:07;98884.00;;;18.00
11424;BMP180;5768;51.476;7.210;2024-03-25T18:06:08;98880.00;;;17.60
11424;BMP180;5768;51.476;7.210;2024-03-25T18:11:11;98879.00;;;17.30
11424;BMP180;5768;51.476;7.210;2024-03-25T18:16:20;98872.00;;;16.90
11424;BMP180;5768;51.476;7.210;2024-03-25T18:21:27;98857.00;;;16.60
11424;BMP180;5768;51.476;7.210;2024-03-25T18:26:35;98869.00;;;16.40
11424;BMP180;5768;51.476;7.210;2024-03-25T18:31:40;98866.00;;;16.10
11424;BMP180;5768;51.476;7.210;2024-03-25T18:36:42;98843.00;;;15.80
11424;BMP180;5768;51.476;7.210;2024-03-25T18:41:45;98845.00;;;15.50
11424;BMP180;5768;51.476;7.210;2024-03-25T18:46:50;98844.00;;;15.30
11424;BMP180;5768;51.476;7.210;2024-03-25T18:57:22;98836.00;;;14.90
11424;BMP180;5768;51.476;7.210;2024-03-25T19:02:31;98814.00;;;14.70
11424;BMP180;5768;51.476;7.210;2024-03-25T19:13:37;98806.00;;;14.30
11424;BMP180;5768;51.476;7.210;2024-03-25T19:18:57;98810.00;;;14.10
11424;BMP180;5768;51.476;7.210;2024-03-25T19:23:59;98788.00;;;14.00
11424;BMP180;5768;51.476;7.210;2024-03-25T19:29:08;98794.00;;;13.80
11424;BMP180;5768;51.476;7.210;2024-03-25T19:34:28;98792.00;;;13.70
11424;BMP180;5768;51.476;7.210;2024-03-25T19:39:49;98786.00;;;13.60
11424;BMP180;5768;51.476;7.210;2024-03-25T19:44:58;98772.00;;;13.40
11424;BMP180;5768;51.476;7.210;2024-03-25T19:50:05;98778.00;;;13.30
11424;BMP180;5768;51.476;7.210;2024-03-25T19:55:09;98781.00;;;13.20
11424;BMP180;5768;51.476;7.210;2024-03-25T20:00:17;98779.00;;;13.10
11424;BMP180;5768;51.476;7.210;2024-03-25T20:05:22;98773.00;;;13.00
11424;BMP180;5768;51.476;7.210;2024-03-25T20:10:23;98766.00;;;12.90
11424;BMP180;5768;51.476;7.210;2024-03-25T20:15:26;98763.00;;;12.80
11424;BMP180;5768;51.476;7.210;2024-03-25T20:20:29;98753.00;;;12.70
11424;BMP180;5768;51.476;7.210;2024-03-25T20:25:36;98759.00;;;12.60
11424;BMP180;5768;51.476;7.210;2024-03-25T20:30:44;98757.00;;;12.50
11424;BMP180;5768;51.476;7.210;2024-03-25T20:35:46;98761.00;;;12.40
11424;BMP180;5768;51.476;7.210;2024-03-25T20:40:47;98755.00;;;12.30
11424;BMP180;5768;51.476;7.210;2024-03-25T20:45:50;98759.00;;;12.20
11424;BMP180;5768;51.476;7.210;2024-03-25T20:50:51;98754.00;;;12.10
11424;BMP180;5768;51.476;7.210;2024-03-25T20:55:52;98753.00;;;12.00
11424;BMP180;5768;51.476;7.210;2024-03-25T21:00:55;98744.00;;;12.00
11424;BMP180;5768;51.476;7.210;2024-03-25T21:05:58;98736.00;;;11.90
11424;BMP180;5768;51.476;7.210;2024-03-25T21:10:59;98731.00;;;11.80
11424;BMP180;5768;51.476;7.210;2024-03-25T21:16:03;98729.00;;;11.70
11424;BMP180;5768;51.476;7.210;2024-03-25T21:21:04;98722.00;;;11.60
11424;BMP180;5768;51.476;7.210;2024-03-25T21:26:06;98717.00;;;11.50
11424;BMP180;5768;51.476;7.210;2024-03-25T21:31:09;98718.00;;;11.40
11424;BMP180;5768;51.476;7.210;2024-03-25T21:36:11;98720.00;;;11.30
11424;BMP180;5768;51.476;7.210;2024-03-25T21:41:12;98704.00;;;11.20
11424;BMP180;5768;51.476;7.210;2024-03-25T21:46:30;98708.00;;;11.10
11424;BMP180;5768;51.476;7.210;2024-03-25T21:51:35;98706.00;;;11.00
11424;BMP180;5768;51.476;7.210;2024-03-25T21:56:54;98693.00;;;10.90
11424;BMP180;5768;51.476;7.210;2024-03-25T22:02:01;98690.00;;;10.80
11424;BMP180;5768;51.476;7.210;2024-03-25T22:07:03;98696.00;;;10.80
11424;BMP180;5768;51.476;7.210;2024-03-25T22:12:08;98683.00;;;10.70
11424;BMP180;5768;51.476;7.210;2024-03-25T22:17:16;98656.00;;;10.70
11424;BMP180;5768;51.476;7.210;2024-03-25T22:22:17;98649.00;;;10.60
11424;BMP180;5768;51.476;7.210;2024-03-25T22:27:19;98656.00;;;10.50
11424;BMP180;5768;51.476;7.210;2024-03-25T22:38:12;98670.00;;;10.40
11424;BMP180;5768;51.476;7.210;2024-03-25T22:43:14;98637.00;;;10.40
11424;BMP180;5768;51.476;7.210;2024-03-25T22:48:17;98628.00;;;10.30
11424;BMP180;5768;51.476;7.210;2024-03-25T22:53:18;98625.00;;;10.20
11424;BMP180;5768;51.476;7.210;2024-03-25T22:58:20;98620.00;;;10.20
11424;BMP180;5768;51.476;7.210;2024-03-25T23:03:23;98611.00;;;10.10
11424;BMP180;5768;51.476;7.210;2024-03-25T23:08:25;98601.00;;;10.10
11424;BMP180;5768;51.476;7.210;2024-03-25T23:13:28;98601.00;;;10.10
11424;BMP180;5768;51.476;7.210;2024-03-25T23:18:31;98597.00;;;10.00
11424;BMP180;5768;51.476;7.210;2024-03-25T23:23:32;98578.00;;;10.00
11424;BMP180;5768;51.476;7.210;2024-03-25T23:28:34;98590.00;;;9.90
11424;BMP180;5768;51.476;7.210;2024-03-25T23:33:44;98597.00;;;9.80
11424;BMP180;5768;51.476;7.210;2024-03-25T23:38:48;98587.00;;;9.80
11424;BMP180;5768;51.476;7.210;2024-03-25T23:43:49;98582.00;;;9.80
11424;BMP180;5768;51.476;7.210;2024-03-25T23:49:02;98577.00;;;9.80
11424;BMP180;5768;51.476;7.210;2024-03-25T23:54:03;98580.00;;;9.70
11424;BMP180;5768;51.476;7.210;2024-03-25T23:59:07;98563.00;;;9.70
